Time;durP1;ratioP1;P1;durP2;ratioP2;P2;SDS_P1;SDS_P2;PMS_P1;PMS_P2;Temp;Humidity;BMP_temperature;BMP_pressure;BME280_temperature;BME280_humidity;BME280_pressure;Samples;Min_cycle;Max_cycle;Signal;HPM_P1;HPM_P2
2022/03/17 00:01:05;;;;;;;28.87;21.53;;;6.80;99.90;;;7.42;100.00;-19979.47;5093806;28;20231;-54
2022/03/17 00:03:33;;;;;;;30.77;21.87;;;6.80;99.90;;;7.62;100.00;-19986.13;5093986;28;20284;-54
2022/03/17 00:06:01;;;;;;;28.67;21.73;;;6.80;99.90;;;7.49;100.00;-19981.88;5094517;28;20360;-55
2022/03/17 00:08:29;;;;;;;28.13;20.73;;;6.70;99.90;;;7.31;100.00;-19975.88;5093616;28;20725;-56
2022/03/17 00:10:59;;;;;;;28.50;21.13;;;6.70;99.90;;;7.30;100.00;-19975.38;5093782;28;20612;-54
2022/03/17 00:13:27;;;;;;;31.30;22.50;;;6.70;99.90;;;7.53;100.00;-19983.22;5094131;28;20217;-58
2022/03/17 00:15:55;;;;;;;27.87;21.20;;;6.70;99.90;;;7.43;100.00;-19979.97;5093873;28;20251;-55
2022/03/17 00:18:24;;;;;;;28.53;21.40;;;6.70;99.90;;;7.43;100.00;-19979.97;5093395;28;20314;-55
2022/03/17 00:20:52;;;;;;;26.50;21.53;;;6.70;99.90;;;7.56;100.00;-19984.09;5093513;28;20358;-55
2022/03/17 00:23:20;;;;;;;29.00;21.63;;;6.70;99.90;;;7.43;100.00;-19979.97;5093380;28;20608;-57
2022/03/17 00:25:47;;;;;;;28.53;21.47;;;6.70;99.90;;;7.36;100.00;-19977.59;5093943;28;20645;-54
2022/03/17 00:28:17;;;;;;;27.73;21.47;;;6.70;99.90;;;7.41;100.00;-19979.13;5093364;28;20262;-55
2022/03/17 00:30:45;;;;;;;28.73;21.93;;;6.60;99.90;;;7.41;100.00;-19979.13;5093753;28;20712;-54
2022/03/17 00:33:13;;;;;;;31.80;21.77;;;6.70;99.90;;;7.53;100.00;-19983.22;5093198;28;20247;-57
2022/03/17 00:35:42;;;;;;;28.00;21.87;;;6.70;99.90;;;7.28;100.00;-19974.84;5093634;28;20774;-55
2022/03/17 00:38:14;;;;;;;31.10;22.13;;;6.60;99.90;;;7.24;100.00;-19973.50;5093308;28;20263;-55
2022/03/17 00:40:46;;;;;;;27.63;21.00;;;6.60;99.90;;;7.18;100.00;-19971.28;5094104;28;20191;-52
2022/03/17 00:43:17;;;;;;;28.07;21.33;;;6.50;99.90;;;7.42;100.00;-19979.47;5092871;28;20220;-55
2022/03/17 00:45:47;;;;;;;31.10;22.87;;;6.60;99.90;;;7.29;100.00;-19975.03;5093532;28;20318;-54
2022/03/17 00:48:15;;;;;;;28.10;21.50;;;6.50;99.90;;;7.20;100.00;-19972.13;5092883;28;20230;-54
2022/03/17 00:50:44;;;;;;;29.93;22.73;;;6.50;99.90;;;7.20;100.00;-19971.94;5093162;28;20230;-55
2022/03/17 00:53:12;;;;;;;28.50;21.40;;;6.50;99.90;;;7.09;100.00;-19968.38;5093069;28;20314;-57
2022/03/17 00:55:40;;;;;;;29.77;21.97;;;6.40;99.90;;;7.18;100.00;-19971.44;5093848;28;20294;-54
2022/03/17 00:58:08;;;;;;;28.47;21.47;;;6.40;99.90;;;7.08;100.00;-19967.84;5092668;28;20233;-53
2022/03/17 01:00:38;;;;;;;30.40;22.67;;;6.40;99.90;;;7.18;100.00;-19971.28;5092823;28;20314;-53
2022/03/17 01:03:06;;;;;;;28.67;21.83;;;6.40;99.90;;;7.15;100.00;-19970.41;5092463;28;20254;-54
2022/03/17 01:05:35;;;;;;;28.03;22.53;;;6.40;99.90;;;7.12;100.00;-19969.38;5093140;28;20249;-52
2022/03/17 01:08:04;;;;;;;29.30;21.70;;;6.40;99.90;;;7.28;100.00;-19974.84;5092777;28;20246;-57
2022/03/17 01:10:32;;;;;;;30.50;23.03;;;6.40;99.90;;;7.21;100.00;-19972.47;5093217;28;20203;-55
2022/03/17 01:13:01;;;;;;;31.37;23.20;;;6.40;99.90;;;7.23;100.00;-19973.16;5092640;28;20314;-54
2022/03/17 01:15:30;;;;;;;29.17;21.77;;;6.40;99.90;;;7.15;100.00;-19970.41;5092578;28;20238;-55
2022/03/17 01:17:59;;;;;;;30.50;21.83;;;6.40;99.90;;;6.99;100.00;-19964.94;5091878;28;20320;-55
2022/03/17 01:20:29;;;;;;;31.67;22.97;;;6.30;99.90;;;6.98;100.00;-19964.59;5092449;28;20235;-56
2022/03/17 01:22:57;;;;;;;34.20;23.10;;;6.30;99.90;;;7.05;100.00;-19966.81;5092763;28;20299;-57
2022/03/17 01:25:25;;;;;;;28.20;21.83;;;6.40;99.90;;;7.07;100.00;-19967.69;5092871;28;20199;-57
2022/03/17 01:27:54;;;;;;;29.47;22.50;;;6.30;99.90;;;7.20;100.00;-19972.13;5092410;28;20227;-53
2022/03/17 01:30:22;;;;;;;29.27;22.23;;;6.30;99.90;;;6.94;100.00;-19963.06;5092135;28;20238;-55
2022/03/17 01:32:50;;;;;;;30.93;23.73;;;6.30;99.90;;;6.94;100.00;-19963.06;5092174;28;20242;-55
2022/03/17 01:35:20;;;;;;;31.27;23.47;;;6.30;99.90;;;7.11;100.00;-19968.88;5092546;28;20219;-54
2022/03/17 01:37:48;;;;;;;30.00;22.33;;;6.30;99.90;;;7.00;100.00;-19965.28;5092778;28;20295;-56
2022/03/17 01:40:16;;;;;;;32.40;23.70;;;6.20;99.90;;;6.83;100.00;-19959.31;5092047;28;20648;-55
2022/03/17 01:42:44;;;;;;;32.00;23.17;;;6.20;99.90;;;6.93;100.00;-19962.72;5092113;28;20653;-52
2022/03/17 01:45:12;;;;;;;31.00;22.57;;;6.10;99.90;;;6.83;100.00;-19959.31;5092037;28;20227;-58
2022/03/17 01:47:40;;;;;;;32.10;23.27;;;6.10;99.90;;;7.06;100.00;-19967.34;5091591;28;20252;-57
2022/03/17 01:50:12;;;;;;;36.03;25.20;;;6.20;99.90;;;6.93;100.00;-19962.72;5091751;28;20367;-53
2022/03/17 01:52:43;;;;;;;31.83;23.40;;;6.10;99.90;;;6.92;100.00;-19962.38;5092013;28;20241;-56
2022/03/17 01:55:15;;;;;;;32.40;24.13;;;6.10;99.90;;;6.88;100.00;-19961.00;5091589;28;20251;-54
2022/03/17 01:57:44;;;;;;;32.13;23.67;;;6.10;99.90;;;6.81;100.00;-19958.78;5092177;28;20306;-54
2022/03/17 02:00:17;;;;;;;32.63;24.47;;;6.10;99.90;;;6.84;100.00;-19959.66;5091553;28;20232;-57
2022/03/17 02:02:47;;;;;;;33.23;24.37;;;6.10;99.90;;;6.84;100.00;-19959.81;5091967;28;20303;-55
2022/03/17 02:05:16;;;;;;;33.63;24.03;;;6.00;99.90;;;6.86;100.00;-19960.50;5091749;28;20231;-57
2022/03/17 02:07:48;;;;;;;31.93;24.20;;;6.00;99.90;;;6.82;100.00;-19959.13;5091603;28;20652;-56
2022/03/17 02:10:17;;;;;;;32.63;23.97;;;6.00;99.90;;;6.71;100.00;-19955.38;5091893;28;20203;-55
2022/03/17 02:15:33;;;;;;;32.70;23.53;;;6.00;99.90;;;6.79;100.00;-19958.13;5091181;28;20254;-54
2022/03/17 02:18:02;;;;;;;33.87;23.97;;;6.00;99.90;;;6.64;100.00;-19952.81;5091316;28;20251;-53
2022/03/17 02:20:33;;;;;;;33.10;23.97;;;6.00;99.90;;;6.58;100.00;-19950.94;5091553;28;20227;-56
2022/03/17 02:25:50;;;;;;;34.10;25.10;;;5.90;99.90;;;6.62;100.00;-19952.13;5090803;28;20767;-51
2022/03/17 02:28:20;;;;;;;33.37;24.03;;;5.90;99.90;;;6.59;100.00;-19951.09;5073532;28;20220;-54
2022/03/17 02:30:48;;;;;;;34.60;25.03;;;5.90;99.90;;;6.54;100.00;-19949.56;5091003;28;20600;-55
2022/03/17 02:33:17;;;;;;;33.23;24.77;;;5.90;99.90;;;6.59;100.00;-19951.09;5091270;28;20223;-54
2022/03/17 02:35:48;;;;;;;32.30;23.53;;;5.90;99.90;;;6.60;100.00;-19951.63;5091230;28;20235;-55
2022/03/17 02:38:19;;;;;;;32.77;24.97;;;5.90;99.90;;;6.58;100.00;-19950.75;5091666;28;20272;-52
2022/03/17 02:40:50;;;;;;;34.87;24.97;;;5.90;99.90;;;6.56;100.00;-19950.09;5091791;28;20191;-53
2022/03/17 02:43:19;;;;;;;34.73;24.67;;;5.90;99.90;;;6.59;100.00;-19951.28;5091162;28;20209;-58
2022/03/17 02:45:48;;;;;;;33.80;26.27;;;5.90;99.90;;;6.59;100.00;-19951.09;5091081;28;20226;-57
2022/03/17 02:48:17;;;;;;;37.37;26.80;;;5.90;99.90;;;6.71;100.00;-19955.22;5091312;28;20245;-56
2022/03/17 02:50:46;;;;;;;34.40;25.00;;;5.90;99.90;;;6.68;100.00;-19954.34;5090780;28;20237;-53
2022/03/17 02:53:15;;;;;;;35.43;26.40;;;5.90;99.90;;;6.76;100.00;-19957.09;5091131;28;20226;-58
2022/03/17 02:55:45;;;;;;;35.67;24.87;;;5.90;99.90;;;6.97;100.00;-19964.09;5091591;28;20581;-56
2022/03/17 02:58:14;;;;;;;39.97;26.27;;;6.00;99.90;;;6.95;100.00;-19963.41;5090848;28;20255;-59
2022/03/17 03:00:42;;;;;;;37.90;26.10;;;6.10;99.90;;;7.11;100.00;-19968.88;5090561;28;20229;-57
2022/03/17 03:03:13;;;;;;;33.23;25.57;;;6.10;99.90;;;6.99;100.00;-19964.94;5090437;28;20246;-55
2022/03/17 03:05:41;;;;;;;34.73;25.73;;;6.20;99.90;;;7.10;100.00;-19968.53;5090896;28;20228;-56
2022/03/17 03:08:09;;;;;;;37.60;27.03;;;6.30;99.90;;;7.06;100.00;-19967.34;5090873;28;20234;-54
2022/03/17 03:10:37;;;;;;;34.50;25.67;;;6.30;99.90;;;6.86;100.00;-19960.34;5091086;28;20216;-55
2022/03/17 03:13:07;;;;;;;35.97;25.83;;;6.20;99.90;;;6.76;100.00;-19956.91;5090294;28;20231;-56
2022/03/17 03:15:35;;;;;;;34.70;25.73;;;6.10;99.90;;;6.70;100.00;-19955.03;5090645;28;20328;-56
2022/03/17 03:18:03;;;;;;;36.80;24.87;;;6.10;99.90;;;6.57;100.00;-19950.41;5090784;28;20236;-56
2022/03/17 03:20:32;;;;;;;34.13;25.50;;;6.00;99.90;;;6.64;100.00;-19952.81;5094474;28;20384;-53
2022/03/17 03:23:00;;;;;;;33.60;25.60;;;6.00;99.90;;;6.66;100.00;-19953.66;5094768;28;20417;-57
2022/03/17 03:25:28;;;;;;;36.60;25.80;;;5.90;99.90;;;6.71;100.00;-19955.38;5095332;28;20201;-58
2022/03/17 03:27:56;;;;;;;36.57;26.13;;;6.00;99.90;;;6.77;100.00;-19957.44;5094749;28;20321;-56
2022/03/17 03:30:25;;;;;;;35.97;26.50;;;5.90;99.90;;;6.86;100.00;-19960.50;5094614;28;20248;-53
2022/03/17 03:32:53;;;;;;;36.90;26.57;;;6.00;99.90;;;6.69;100.00;-19954.69;5094478;28;20227;-54
2022/03/17 03:38:06;;;;;;;38.40;26.83;;;5.90;99.90;;;6.54;100.00;-19949.56;5094863;28;20194;-56
2022/03/17 03:40:34;;;;;;;38.07;26.77;;;5.90;99.90;;;6.56;100.00;-19950.25;5094760;28;20203;-51
2022/03/17 03:43:02;;;;;;;38.07;26.87;;;5.90;99.90;;;6.55;100.00;-19949.91;5094056;28;20226;-56
2022/03/17 03:45:33;;;;;;;37.20;26.83;;;5.80;99.90;;;6.64;100.00;-19952.97;5094509;28;20226;-55
2022/03/17 03:48:01;;;;;;;37.13;27.17;;;5.80;99.90;;;6.50;100.00;-19948.03;5094364;28;20245;-56
2022/03/17 03:50:30;;;;;;;37.50;26.90;;;5.80;99.90;;;6.48;100.00;-19947.34;5094169;28;20735;-55
2022/03/17 03:52:58;;;;;;;37.40;26.37;;;5.80;99.90;;;6.64;100.00;-19952.81;5094081;28;20310;-56
2022/03/17 03:55:26;;;;;;;37.10;26.00;;;5.80;99.90;;;6.50;100.00;-19948.19;5095031;28;20297;-55
2022/03/17 03:57:54;;;;;;;39.40;27.60;;;5.80;99.90;;;6.48;100.00;-19947.34;5093957;28;20308;-54
2022/03/17 04:00:33;;;;;;;39.03;27.70;;;5.70;99.90;;;6.63;100.00;-19952.47;5093897;28;20290;-54
2022/03/17 04:03:04;;;;;;;36.80;26.00;;;5.80;99.90;;;6.41;100.00;-19945.13;5093850;28;20235;-55
2022/03/17 04:05:34;;;;;;;36.43;26.63;;;5.80;99.90;;;6.53;100.00;-19949.06;5094106;28;20226;-56
2022/03/17 04:08:03;;;;;;;37.17;27.20;;;5.70;99.90;;;6.30;100.00;-19941.19;5093627;28;20207;-55
2022/03/17 04:10:32;;;;;;;36.33;27.03;;;5.70;99.90;;;6.38;100.00;-19944.09;5094713;28;20315;-54
2022/03/17 04:12:59;;;;;;;35.73;26.27;;;5.70;99.90;;;6.36;100.00;-19943.41;5093110;28;20231;-55
2022/03/17 04:15:28;;;;;;;36.70;27.73;;;5.70;99.90;;;6.46;100.00;-19946.66;5092621;28;20768;-53
2022/03/17 04:17:56;;;;;;;37.23;27.37;;;5.70;99.90;;;6.42;100.00;-19945.47;5092560;28;20785;-56
2022/03/17 04:20:26;;;;;;;36.60;26.67;;;5.60;99.90;;;6.42;100.00;-19945.28;5092677;28;20314;-56
2022/03/17 04:22:54;;;;;;;37.70;27.73;;;5.70;99.90;;;6.37;100.00;-19943.75;5092230;28;20678;-53
2022/03/17 04:25:22;;;;;;;38.60;27.17;;;5.60;99.90;;;6.22;100.00;-19938.47;5093015;28;20238;-51
2022/03/17 04:27:50;;;;;;;37.77;26.43;;;5.60;99.90;;;6.22;100.00;-19938.63;5092551;28;20235;-57
2022/03/17 04:30:18;;;;;;;37.33;27.03;;;5.60;99.90;;;6.40;100.00;-19944.59;5091933;28;20784;-56
2022/03/17 04:32:46;;;;;;;37.47;26.17;;;5.60;99.90;;;6.33;100.00;-19942.38;5092130;28;20309;-56
2022/03/17 04:35:14;;;;;;;40.17;28.40;;;5.60;99.90;;;6.32;100.00;-19942.03;5092445;28;20986;-54
2022/03/17 04:37:44;;;;;;;36.17;26.60;;;5.60;99.90;;;6.38;100.00;-19943.94;5092828;28;20289;-56
2022/03/17 04:40:14;;;;;;;37.47;27.43;;;5.60;99.90;;;6.42;100.00;-19945.47;5092094;28;20749;-56
2022/03/17 04:42:42;;;;;;;39.90;27.10;;;5.60;99.90;;;6.53;100.00;-19949.22;5092185;28;20460;-56
2022/03/17 04:45:10;;;;;;;39.47;28.00;;;5.70;99.90;;;6.54;100.00;-19949.56;5091861;28;20756;-56
2022/03/17 04:47:38;;;;;;;35.73;26.40;;;5.70;99.90;;;6.57;100.00;-19950.59;5092237;28;20559;-55
2022/03/17 04:50:08;;;;;;;37.83;27.37;;;5.70;99.90;;;6.68;100.00;-19954.19;5092224;28;20223;-55
2022/03/17 04:55:23;;;;;;;34.87;26.40;;;5.80;99.90;;;6.43;100.00;-19945.63;5092177;28;20205;-57
2022/03/17 04:57:51;;;;;;;39.37;28.50;;;5.70;99.90;;;6.47;100.00;-19947.19;5091929;28;20230;-55
2022/03/17 05:00:20;;;;;;;38.93;26.03;;;5.70;99.90;;;6.58;100.00;-19950.94;5091382;28;20302;-55
2022/03/17 05:02:48;;;;;;;37.70;28.07;;;5.70;99.90;;;6.64;100.00;-19952.97;5091312;28;20254;-56
2022/03/17 05:05:17;;;;;;;39.00;28.20;;;5.80;99.90;;;6.55;100.00;-19949.91;5091974;28;20219;-55
2022/03/17 05:07:45;;;;;;;40.73;28.10;;;5.70;99.90;;;6.48;100.00;-19947.34;5092483;28;20268;-57
2022/03/17 05:10:13;;;;;;;40.07;28.10;;;5.70;99.90;;;6.75;100.00;-19956.75;5091619;28;20313;-56
2022/03/17 05:12:42;;;;;;;39.43;28.40;;;5.80;99.90;;;6.67;100.00;-19954.00;5055891;28;1023584;-55
2022/03/17 05:15:10;;;;;;;40.27;29.13;;;5.80;99.90;;;6.69;100.00;-19954.53;5092434;28;20259;-57
2022/03/17 05:17:40;;;;;;;39.37;28.27;;;5.90;99.90;;;6.53;100.00;-19949.22;5092244;28;20262;-55
2022/03/17 05:20:12;;;;;;;41.10;28.83;;;5.80;99.90;;;6.75;100.00;-19956.75;5092618;28;20558;-55
2022/03/17 05:22:41;;;;;;;36.73;27.17;;;5.80;99.90;;;6.69;100.00;-19954.53;5092931;28;20243;-57
2022/03/17 05:25:10;;;;;;;42.27;28.83;;;5.80;99.90;;;6.57;100.00;-19950.59;5092042;28;20225;-58
2022/03/17 05:27:39;;;;;;;40.10;27.87;;;5.80;99.90;;;6.64;100.00;-19952.97;5092203;28;20706;-54
2022/03/17 05:30:12;;;;;;;38.47;27.90;;;5.80;99.90;;;6.49;100.00;-19947.69;5092065;28;20308;-55
2022/03/17 05:32:40;;;;;;;40.90;28.10;;;5.80;99.90;;;6.54;100.00;-19949.56;5092123;28;20262;-53
2022/03/17 05:35:10;;;;;;;37.40;28.00;;;5.80;99.90;;;6.63;100.00;-19952.63;5092126;28;20737;-55
2022/03/17 05:37:39;;;;;;;38.17;28.20;;;5.80;99.90;;;6.58;100.00;-19950.75;5092984;28;20210;-55
2022/03/17 05:40:13;;;;;;;37.53;28.03;;;5.80;99.90;;;6.51;100.00;-19948.53;5092027;28;20322;-54
2022/03/17 05:42:43;;;;;;;38.53;26.97;;;5.80;99.90;;;6.43;100.00;-19945.63;5091708;28;20227;-55
2022/03/17 05:45:14;;;;;;;39.33;28.97;;;5.80;99.90;;;6.42;100.00;-19945.28;5091918;28;20321;-56
2022/03/17 05:47:45;;;;;;;41.33;28.47;;;5.80;99.90;;;6.46;100.00;-19946.66;5092414;28;20242;-54
2022/03/17 05:50:15;;;;;;;39.80;28.43;;;5.80;99.90;;;6.55;100.00;-19949.72;5091678;28;20223;-56
2022/03/17 05:52:45;;;;;;;41.47;29.23;;;5.80;99.90;;;6.59;100.00;-19951.28;5092263;28;20302;-54
2022/03/17 05:55:15;;;;;;;42.33;29.93;;;5.80;99.90;;;6.62;100.00;-19952.31;5091545;28;20310;-56
2022/03/17 05:57:46;;;;;;;37.87;27.90;;;5.90;99.90;;;6.71;100.00;-19955.22;5091933;28;20226;-54
2022/03/17 06:00:18;;;;;;;40.00;29.23;;;5.90;99.90;;;6.71;100.00;-19955.22;5091096;28;20218;-55
2022/03/17 06:02:47;;;;;;;40.37;29.30;;;6.00;99.90;;;6.73;100.00;-19955.88;5091758;28;20268;-55
2022/03/17 06:05:15;;;;;;;39.73;29.60;;;6.00;99.90;;;6.95;100.00;-19963.56;5091934;28;20238;-55
2022/03/17 06:07:45;;;;;;;40.10;29.37;;;6.00;99.90;;;7.03;100.00;-19966.31;5092388;28;20294;-54
2022/03/17 06:10:16;;;;;;;38.70;27.83;;;6.10;99.90;;;7.03;100.00;-19966.16;5091360;28;20602;-56
2022/03/17 06:12:45;;;;;;;42.37;28.57;;;6.20;99.90;;;7.02;100.00;-19965.78;5091442;28;20326;-54
2022/03/17 06:15:14;;;;;;;38.90;28.13;;;6.20;99.90;;;7.19;100.00;-19971.59;5091139;28;20710;-55
2022/03/17 06:17:47;;;;;;;38.97;29.40;;;6.30;99.90;;;7.24;100.00;-19973.31;5091517;28;20222;-58
2022/03/17 06:20:18;;;;;;;39.00;28.70;;;6.30;99.90;;;7.35;100.00;-19977.25;5091259;28;20224;-56
2022/03/17 06:22:53;;;;;;;41.50;29.57;;;6.40;99.90;;;7.30;100.00;-19975.53;5091545;28;20270;-52
2022/03/17 06:25:24;;;;;;;40.83;29.60;;;6.40;99.90;;;7.40;100.00;-19978.97;5091679;28;20275;-56
2022/03/17 06:27:53;;;;;;;38.70;28.50;;;6.50;99.90;;;7.34;100.00;-19976.91;5091220;28;20246;-56
2022/03/17 06:30:23;;;;;;;41.00;28.77;;;6.50;99.90;;;7.54;100.00;-19983.41;5090604;28;20223;-56
2022/03/17 06:32:54;;;;;;;43.53;29.40;;;6.60;99.90;;;7.72;100.00;-19989.72;5090433;28;20220;-55
2022/03/17 06:35:26;;;;;;;41.77;29.93;;;6.70;99.90;;;7.64;100.00;-19986.81;5091039;28;20223;-54
2022/03/17 06:37:57;;;;;;;40.23;28.70;;;6.70;99.90;;;7.73;100.00;-19990.06;5091360;28;20252;-53
2022/03/17 06:40:27;;;;;;;41.87;29.43;;;6.80;99.90;;;7.84;100.00;-19993.66;5091237;28;20227;-54
2022/03/17 06:42:56;;;;;;;37.93;29.07;;;6.90;99.90;;;7.90;100.00;-19995.88;5091010;28;20315;-55
2022/03/17 06:45:26;;;;;;;37.97;27.90;;;6.90;99.90;;;7.92;100.00;-19996.56;5090080;28;20212;-54
2022/03/17 06:47:56;;;;;;;38.20;29.03;;;7.00;99.90;;;7.96;99.89;-19997.75;5090791;28;20228;-55
2022/03/17 06:50:25;;;;;;;40.90;29.17;;;7.00;99.90;;;8.04;98.56;-20000.66;5090630;28;20242;-56
2022/03/17 06:52:54;;;;;;;37.17;27.27;;;7.10;99.90;;;7.98;98.92;-19998.44;5090504;28;20214;-58
2022/03/17 06:55:23;;;;;;;39.80;29.87;;;7.10;99.90;;;8.03;96.60;-20000.16;5091004;28;20203;-57
2022/03/17 06:57:52;;;;;;;37.83;28.03;;;7.10;99.90;;;7.94;97.44;-19997.25;5090849;28;20233;-55
2022/03/17 07:00:21;;;;;;;37.23;28.47;;;7.10;99.90;;;7.98;98.29;-19998.59;5090506;28;20237;-57
2022/03/17 07:02:49;;;;;;;41.47;28.80;;;7.10;99.90;;;7.91;98.39;-19996.22;5090620;28;20254;-54
2022/03/17 07:05:18;;;;;;;37.53;29.03;;;7.10;99.90;;;7.98;97.73;-19998.59;5090622;28;20714;-57
2022/03/17 07:07:46;;;;;;;36.97;28.00;;;7.20;99.90;;;8.01;97.54;-19999.63;5091649;28;20235;-54
2022/03/17 07:10:16;;;;;;;36.53;27.97;;;7.20;99.90;;;8.05;97.07;-20000.84;5090744;28;20298;-56
2022/03/17 07:12:47;;;;;;;38.00;28.27;;;7.20;99.90;;;8.19;97.47;-20005.59;5090417;28;20234;-55
2022/03/17 07:15:15;;;;;;;37.57;27.90;;;7.30;99.90;;;8.29;95.94;-20009.03;5090523;28;20228;-56
2022/03/17 07:17:43;;;;;;;37.17;28.00;;;7.30;99.90;;;8.21;97.06;-20006.28;5090056;28;20224;-56
2022/03/17 07:20:13;;;;;;;40.77;29.40;;;7.30;99.90;;;8.20;96.29;-20005.97;5090851;28;20555;-55
2022/03/17 07:22:46;;;;;;;39.53;28.30;;;7.40;99.90;;;8.34;96.39;-20010.91;5091011;28;20180;-55
2022/03/17 07:25:17;;;;;;;40.03;29.53;;;7.40;99.90;;;8.33;95.63;-20010.41;5090681;28;20208;-53
2022/03/17 07:27:48;;;;;;;37.90;27.83;;;7.40;99.90;;;8.57;94.19;-20018.78;5090422;28;20655;-58
2022/03/17 07:30:19;;;;;;;39.13;29.30;;;7.50;99.90;;;8.60;93.37;-20019.63;5090295;28;20277;-56
2022/03/17 07:32:50;;;;;;;35.57;27.20;;;7.60;99.90;;;8.51;94.26;-20016.56;5090151;28;20231;-55
2022/03/17 07:35:18;;;;;;;36.70;28.60;;;7.60;99.90;;;8.46;94.92;-20015.00;5090451;28;20242;-53
2022/03/17 07:37:47;;;;;;;40.37;29.00;;;7.60;99.90;;;8.64;93.02;-20021.00;5091152;28;20204;-56
2022/03/17 07:40:15;;;;;;;38.77;29.33;;;7.60;99.90;;;8.71;92.47;-20023.22;5090394;28;20321;-56
2022/03/17 07:42:43;;;;;;;39.50;28.77;;;7.70;99.90;;;8.80;92.20;-20026.47;5090228;28;20724;-59
2022/03/17 07:45:12;;;;;;;34.73;27.67;;;7.70;99.90;;;8.71;93.62;-20023.38;5088941;28;20625;-59
2022/03/17 07:47:46;;;;;;;38.83;29.10;;;7.80;99.90;;;8.80;93.09;-20026.47;5069773;28;20679;-59
2022/03/17 07:50:14;;;;;;;39.60;28.27;;;7.80;99.90;;;8.77;93.35;-20025.25;5070262;28;20237;-57
2022/03/17 07:52:44;;;;;;;41.33;31.57;;;7.80;99.90;;;8.91;92.91;-20030.22;5081638;28;20278;-55
2022/03/17 07:55:14;;;;;;;39.67;30.43;;;7.90;99.90;;;9.01;91.94;-20033.63;5089462;28;20259;-55
2022/03/17 07:57:42;;;;;;;35.43;27.83;;;8.00;99.90;;;9.22;91.16;-20040.63;5089754;28;20597;-56
2022/03/17 08:00:12;;;;;;;40.50;28.83;;;8.10;99.90;;;9.35;89.20;-20045.09;5089834;28;20230;-60
2022/03/17 08:02:40;;;;;;;39.30;29.50;;;8.20;99.90;;;9.42;89.30;-20047.47;5089663;28;20226;-59
2022/03/17 08:05:10;;;;;;;37.57;28.87;;;8.30;99.90;;;9.51;88.31;-20050.53;5073283;28;20304;-56
2022/03/17 08:07:38;;;;;;;37.13;28.73;;;8.40;99.90;;;9.58;87.52;-20052.94;5075117;28;20369;-58
2022/03/17 08:10:09;;;;;;;36.77;28.00;;;8.50;99.90;;;9.61;87.90;-20053.97;5093919;28;20311;-59
2022/03/17 08:12:38;;;;;;;38.17;28.60;;;8.60;99.90;;;9.86;85.79;-20062.50;5086087;28;20303;-57
2022/03/17 08:15:07;;;;;;;38.93;28.47;;;8.70;99.90;;;9.81;86.59;-20060.78;5073619;28;20243;-58
2022/03/17 08:17:35;;;;;;;39.07;29.53;;;8.80;99.90;;;10.22;83.78;-20074.63;5072837;28;20224;-56
2022/03/17 08:20:05;;;;;;;35.83;28.13;;;8.90;99.90;;;9.95;84.11;-20065.41;5073145;28;20285;-53
2022/03/17 08:22:34;;;;;;;39.03;28.90;;;8.90;99.90;;;10.09;83.96;-20070.19;5091691;28;20323;-52
2022/03/17 08:25:03;;;;;;;38.67;29.97;;;9.00;99.90;;;10.17;84.19;-20072.94;5093708;28;20285;-54
2022/03/17 08:27:32;;;;;;;37.33;28.87;;;9.00;99.90;;;10.26;84.65;-20076.19;5093424;28;20232;-53
2022/03/17 08:30:03;;;;;;;37.37;29.13;;;9.10;99.90;;;10.41;82.88;-20081.13;5093954;28;20763;-51
2022/03/17 08:32:31;;;;;;;36.73;28.77;;;9.30;99.90;;;10.57;81.46;-20086.59;5093422;28;20914;-55
2022/03/17 08:34:59;;;;;;;38.37;28.07;;;9.30;99.90;;;10.45;80.80;-20082.50;5093443;28;20224;-57
2022/03/17 08:37:26;;;;;;;38.17;28.97;;;9.40;99.90;;;10.55;81.14;-20086.09;5092353;28;20237;-56
2022/03/17 08:39:55;;;;;;;38.13;29.07;;;9.40;99.90;;;10.47;81.73;-20083.34;5073523;28;20311;-59
2022/03/17 08:42:23;;;;;;;35.50;29.03;;;9.50;99.90;;;10.45;81.36;-20082.50;5073157;28;20288;-58
2022/03/17 08:44:50;;;;;;;40.50;30.37;;;9.40;99.90;;;10.54;80.91;-20085.56;5073499;28;20249;-56
2022/03/17 08:50:07;;;;;;;36.50;28.93;;;9.50;99.90;;;10.70;80.86;-20091.03;5073262;28;20225;-56
2022/03/17 08:52:35;;;;;;;38.13;29.43;;;9.50;99.90;;;10.76;80.37;-20093.09;5072782;28;20771;-58
2022/03/17 08:55:03;;;;;;;34.47;28.73;;;9.60;99.90;;;10.75;80.09;-20092.75;5073134;28;20228;-54
2022/03/17 08:57:31;;;;;;;35.97;28.73;;;9.60;99.90;;;10.86;79.75;-20096.50;5072808;28;20330;-57
2022/03/17 09:00:06;;;;;;;40.90;30.10;;;9.70;99.90;;;11.04;79.02;-20102.66;5073017;28;20201;-58
2022/03/17 09:02:43;;;;;;;35.83;27.93;;;9.70;99.90;;;11.02;78.66;-20101.97;5073026;28;20224;-57
2022/03/17 09:05:11;;;;;;;37.67;30.13;;;9.70;99.90;;;10.99;78.60;-20101.09;5072573;28;20252;-56
2022/03/17 09:07:39;;;;;;;36.97;27.73;;;9.80;99.90;;;11.14;77.77;-20106.06;5072992;28;20235;-53
2022/03/17 09:10:08;;;;;;;34.47;27.97;;;10.00;99.90;;;11.17;78.70;-20107.09;5072458;28;20571;-56
2022/03/17 09:12:38;;;;;;;39.17;29.80;;;10.00;99.90;;;11.19;78.72;-20107.78;5072200;28;20220;-51
2022/03/17 09:15:08;;;;;;;36.97;28.67;;;10.10;99.90;;;11.42;77.65;-20115.63;5073375;28;20204;-55
2022/03/17 09:17:42;;;;;;;33.67;28.47;;;10.10;99.90;;;11.59;76.32;-20121.25;5071143;28;20303;-55
2022/03/17 09:20:15;;;;;;;36.53;29.37;;;10.20;99.90;;;11.50;76.02;-20118.34;5072496;28;20234;-56
2022/03/17 09:22:44;;;;;;;40.07;30.43;;;10.30;99.90;;;11.44;76.16;-20116.31;5091725;28;20228;-54
2022/03/17 09:25:13;;;;;;;35.60;29.37;;;10.30;99.90;;;11.46;75.92;-20116.81;5092248;28;20773;-59
2022/03/17 09:27:44;;;;;;;36.40;29.17;;;10.30;99.90;;;11.70;74.47;-20125.19;5092609;28;20236;-56
2022/03/17 09:30:13;;;;;;;35.60;28.93;;;10.40;99.90;;;11.63;75.35;-20122.63;5092803;28;20299;-58
2022/03/17 09:32:44;;;;;;;37.50;29.53;;;10.40;99.90;;;11.62;76.00;-20122.47;5092165;28;20238;-56
2022/03/17 09:35:14;;;;;;;34.70;29.37;;;10.40;99.90;;;11.68;75.69;-20124.50;5092226;28;20311;-54
2022/03/17 09:37:42;;;;;;;36.90;29.40;;;10.50;99.90;;;11.74;75.59;-20126.56;5092121;28;20565;-54
2022/03/17 09:40:12;;;;;;;36.73;29.60;;;10.60;99.90;;;11.76;76.40;-20127.25;5092041;28;20802;-57
2022/03/17 09:42:40;;;;;;;37.73;30.97;;;10.60;99.90;;;11.91;75.59;-20132.19;5092575;28;20251;-57
2022/03/17 09:45:10;;;;;;;39.07;31.07;;;10.70;99.90;;;12.09;74.30;-20138.50;5092340;28;20759;-56
2022/03/17 09:47:42;;;;;;;35.23;29.50;;;10.70;99.90;;;12.00;75.08;-20135.28;5091687;28;20664;-57
2022/03/17 09:50:14;;;;;;;37.97;30.50;;;10.70;99.90;;;11.99;75.27;-20134.94;5091581;28;20735;-56
2022/03/17 09:52:47;;;;;;;38.90;31.10;;;10.70;99.90;;;11.86;74.89;-20130.50;5092138;28;20236;-58
2022/03/17 09:55:15;;;;;;;37.37;30.53;;;10.70;99.90;;;11.73;75.99;-20126.06;5091806;28;20220;-56
2022/03/17 09:57:43;;;;;;;38.30;30.93;;;10.70;99.90;;;11.60;77.59;-20121.59;5091856;28;20223;-55
2022/03/17 10:00:15;;;;;;;38.00;31.43;;;10.60;99.90;;;11.66;77.06;-20123.66;5092096;28;20196;-52
2022/03/17 10:02:45;;;;;;;38.37;30.90;;;10.60;99.90;;;11.82;77.20;-20129.28;5091953;28;20213;-55
2022/03/17 10:05:13;;;;;;;36.80;30.07;;;10.60;99.90;;;11.96;76.16;-20133.91;5091481;28;20238;-57
2022/03/17 10:07:41;;;;;;;35.60;29.97;;;10.70;99.90;;;11.96;76.22;-20133.91;5091803;28;20307;-58
2022/03/17 10:10:11;;;;;;;38.90;30.90;;;10.80;99.90;;;12.04;76.38;-20136.63;5091246;28;20251;-55
2022/03/17 10:12:39;;;;;;;36.77;31.17;;;10.80;99.90;;;12.24;75.66;-20143.47;5091284;28;21084;-57
2022/03/17 10:15:19;;;;;;;37.57;31.07;;;11.00;99.90;;;12.46;74.25;-20150.97;5091807;28;20219;-54
2022/03/17 10:17:48;;;;;;;40.80;31.40;;;11.10;99.90;;;12.65;73.99;-20157.47;5091610;28;20212;-57
2022/03/17 10:20:22;;;;;;;38.07;31.73;;;11.30;99.90;;;12.94;72.79;-20167.19;5091115;28;20270;-55
2022/03/17 10:22:53;;;;;;;42.77;32.20;;;11.50;99.90;;;13.14;70.27;-20174.03;5091445;28;20251;-57
2022/03/17 10:25:24;;;;;;;38.50;31.70;;;11.70;99.90;;;13.35;69.76;-20181.19;5091291;28;20224;-57
2022/03/17 10:27:55;;;;;;;36.40;30.63;;;11.80;99.90;;;13.60;69.31;-20189.56;5090931;28;20311;-59